首页
METAR-TAF:

METAR-TAF

机场 :

布拉格瓦茨拉夫·哈維爾國際機場

布拉格, 捷克共和国

纬度: 50-06N, 经度: 014-15E, 海拔: 365米

当前天气观测

该预报发布于37分钟前的11:00 UTC
风速11节,风向西北
温度 12°C
湿度 47%
气压 1028 hPa
能见度10公里或以上
散云层高于4200英尺

METAR: LKPR 191100Z 31011KT 9999 SCT042 12/01 Q1028 NOSIG

时间: 13:37 (11:37 UTC)

预报

该预报发布于6小时和37分钟前的05:00 UTC
预报有效从19日的 06点(UTC)到 20日的 12点(UTC)
风速6节,风向西
能见度10公里或以上
1500米以下无云,无积雨云
成为
从 19日的 06点(UTC)到 19日的 09点(UTC)
风速8节,风向北转西北
短暂存在
从 19日的 10点(UTC)到 19日的 16点(UTC)
能见度10公里或以上
散云层高于4000英尺
几率 30% :
短暂存在
从 20日的 10点(UTC)到 20日的 12点(UTC)
能见度10公里或以上
散云层高于4000英尺

TAF: LKPR 190500Z 1906/2012 26006KT CAVOK BECMG 1906/1909 33008KT TEMPO 1910/1916 9999 SCT040 PROB30 TEMPO 2010/2012 9999 SCT040

超过4000个机场的气象观测和天气预报(METAR&TAF报告)。

可查询的气象台以黄色和红色小点在地图上表示。

将鼠标移到小点上方,可查看气象台名称。

然后点击查看天气观测和预报。

如需切换地图:点击带黑十字的绿色按钮放大地图;点击带横线的绿色按钮缩小地图;或者点击绿色箭头查看邻近地区的地图。


METAR-TAF: